createdAt,value
2018-10-18T00:01:03.690Z,88.74
2018-10-18T00:06:22.234Z,88.77
2018-10-18T00:11:40.851Z,88.82
2018-10-18T00:16:59.446Z,89.34
2018-10-18T00:22:18.013Z,89.04
2018-10-18T00:27:36.937Z,89.02
2018-10-18T00:32:55.461Z,88.92
2018-10-18T00:38:14.135Z,92.11
2018-10-18T00:43:32.617Z,91.83
2018-10-18T00:48:51.150Z,91.73
2018-10-18T00:54:09.708Z,91.33
2018-10-18T00:59:28.263Z,92.08
2018-10-18T01:04:46.894Z,92.35
2018-10-18T01:10:06.860Z,92.73
2018-10-18T01:15:25.433Z,92.11
2018-10-18T01:20:44.071Z,92.18
2018-10-18T01:26:03.362Z,92.10
2018-10-18T01:31:22.194Z,92.11
2018-10-18T01:36:40.792Z,91.90
2018-10-18T01:41:59.497Z,91.93
2018-10-18T01:47:18.050Z,92.04
2018-10-18T01:52:36.697Z,91.58
2018-10-18T01:57:55.258Z,91.65
2018-10-18T02:03:13.793Z,91.13
2018-10-18T02:08:32.480Z,91.99
2018-10-18T02:13:51.002Z,91.54
2018-10-18T02:19:09.553Z,92.48
2018-10-18T02:24:28.679Z,92.26
2018-10-18T02:29:47.226Z,91.92
2018-10-18T02:35:06.978Z,92.06
2018-10-18T02:40:25.614Z,91.95
2018-10-18T02:45:44.184Z,91.42
2018-10-18T02:51:02.752Z,91.32
2018-10-18T02:56:21.337Z,91.69
2018-10-18T03:01:39.850Z,91.19
2018-10-18T03:06:58.351Z,91.41
2018-10-18T03:12:16.900Z,90.69
2018-10-18T03:17:35.403Z,91.86
2018-10-18T03:22:53.923Z,91.12
2018-10-18T03:28:12.576Z,91.40
2018-10-18T03:33:31.108Z,90.89
2018-10-18T03:38:49.735Z,90.72
2018-10-18T03:44:08.250Z,90.41
2018-10-18T03:49:26.828Z,90.67
2018-10-18T03:54:45.326Z,90.50
2018-10-18T04:00:04.094Z,90.52
2018-10-18T04:05:22.633Z,90.94
2018-10-18T04:10:41.192Z,90.38
2018-10-18T04:15:59.723Z,90.46
2018-10-18T04:21:18.243Z,90.94
2018-10-18T04:26:36.794Z,90.60
2018-10-18T04:31:55.389Z,90.70
2018-10-18T04:37:13.997Z,90.60
2018-10-18T04:42:32.486Z,90.32
2018-10-18T04:47:51.144Z,90.79
2018-10-18T04:53:09.851Z,90.24
2018-10-18T04:58:28.600Z,90.26
2018-10-18T05:03:47.151Z,90.60
2018-10-18T05:09:07.703Z,90.47
2018-10-18T05:14:26.265Z,90.16
2018-10-18T05:19:44.925Z,90.29
2018-10-18T05:25:03.576Z,90.34
2018-10-18T05:30:22.013Z,89.92
2018-10-18T05:35:40.709Z,90.41
2018-10-18T05:40:59.321Z,90.18
2018-10-18T05:46:17.842Z,90.17
2018-10-18T05:51:36.365Z,89.67
2018-10-18T05:56:54.923Z,89.99
2018-10-18T06:02:13.474Z,90.12
2018-10-18T06:07:32.101Z,90.59
2018-10-18T06:12:51.160Z,90.17
2018-10-18T06:18:09.654Z,89.82
2018-10-18T06:23:28.973Z,89.97
2018-10-18T06:28:47.862Z,89.87
2018-10-18T06:34:06.638Z,89.69
2018-10-18T06:39:25.439Z,89.29
2018-10-18T06:44:43.879Z,89.25
2018-10-18T06:50:02.575Z,89.95
2018-10-18T06:55:21.110Z,89.36
2018-10-18T07:00:39.660Z,88.67
2018-10-18T07:05:58.256Z,88.46
2018-10-18T07:11:16.860Z,88.58
2018-10-18T07:16:35.471Z,88.52
2018-10-18T07:21:54.010Z,87.70
2018-10-18T07:27:13.210Z,86.76
2018-10-18T07:32:32.005Z,86.90
2018-10-18T07:37:50.547Z,86.61
2018-10-18T07:43:09.115Z,86.42
2018-10-18T07:48:27.985Z,85.31
2018-10-18T07:53:46.517Z,84.95
2018-10-18T07:59:05.215Z,84.43
2018-10-18T08:04:23.825Z,84.24
2018-10-18T08:09:42.339Z,83.74
2018-10-18T08:15:00.898Z,82.95
2018-10-18T08:20:19.507Z,83.92
2018-10-18T08:25:38.052Z,83.43
2018-10-18T08:30:57.352Z,84.13
2018-10-18T08:36:15.873Z,84.01
2018-10-18T08:41:34.386Z,84.83
2018-10-18T08:46:52.938Z,84.94
2018-10-18T08:52:11.475Z,83.65
2018-10-18T09:02:46.670Z,83.89
2018-10-18T09:08:05.614Z,82.06
2018-10-18T09:13:24.131Z,80.72
2018-10-18T09:18:42.709Z,79.91
2018-10-18T09:24:01.305Z,79.37
2018-10-18T09:29:19.874Z,79.73
2018-10-18T09:34:38.439Z,78.97
2018-10-18T09:39:57.014Z,79.95
2018-10-18T09:45:15.601Z,79.94
2018-10-18T09:50:34.943Z,79.64
2018-10-18T09:55:53.723Z,79.30
2018-10-18T10:01:17.439Z,78.56
2018-10-18T10:06:36.003Z,75.88
2018-10-18T10:11:54.730Z,74.04
2018-10-18T10:17:13.356Z,73.79
2018-10-18T10:22:32.032Z,72.42
2018-10-18T10:27:50.590Z,71.65
2018-10-18T10:33:09.194Z,71.17
2018-10-18T10:38:27.663Z,71.24
2018-10-18T10:43:46.187Z,70.79
2018-10-18T10:49:05.119Z,70.37
2018-10-18T10:54:23.651Z,69.55
2018-10-18T10:59:42.180Z,70.11
2018-10-18T11:05:00.824Z,69.42
2018-10-18T11:10:20.175Z,69.36
2018-10-18T11:15:38.752Z,69.66
2018-10-18T11:20:57.321Z,70.02
2018-10-18T11:26:16.072Z,69.13
2018-10-18T11:31:35.116Z,68.10
2018-10-18T11:36:53.686Z,67.93
2018-10-18T11:42:12.280Z,68.25
2018-10-18T11:47:30.838Z,67.63
2018-10-18T11:52:49.375Z,67.42
2018-10-18T11:58:08.799Z,67.81
2018-10-18T12:03:27.363Z,68.13
2018-10-18T12:08:45.985Z,67.17
2018-10-18T12:14:04.993Z,65.49
2018-10-18T12:19:23.512Z,66.20
2018-10-18T12:24:42.211Z,65.01
2018-10-18T12:30:01.922Z,64.84
2018-10-18T12:35:21.071Z,63.86
2018-10-18T12:40:40.374Z,63.95
2018-10-18T12:45:59.888Z,63.78
2018-10-18T12:51:18.405Z,63.63
2018-10-18T12:56:37.526Z,63.74
2018-10-18T13:01:56.089Z,62.74
2018-10-18T13:07:14.648Z,63.77
2018-10-18T13:12:33.424Z,63.88
2018-10-18T13:17:52.199Z,64.43
2018-10-18T13:23:10.806Z,67.11
2018-10-18T13:28:29.366Z,67.67
2018-10-18T13:33:48.100Z,68.75
2018-10-18T13:39:12.621Z,69.13
2018-10-18T13:44:31.352Z,69.20
2018-10-18T13:49:49.971Z,69.77
2018-10-18T13:55:08.563Z,69.74
2018-10-18T14:00:29.502Z,70.96
2018-10-18T14:05:48.391Z,71.23
2018-10-18T14:11:06.970Z,71.82
2018-10-18T14:16:25.797Z,71.36
2018-10-18T14:21:45.587Z,71.30
2018-10-18T14:27:04.239Z,70.41
2018-10-18T14:32:23.102Z,71.30
2018-10-18T14:37:44.643Z,70.44
2018-10-18T14:43:04.142Z,71.02
2018-10-18T14:48:22.709Z,69.94
2018-10-18T14:53:41.323Z,69.96
2018-10-18T14:58:59.934Z,70.54
2018-10-18T15:04:26.336Z,70.96
2018-10-18T15:09:44.855Z,69.89
2018-10-18T15:15:03.420Z,69.95
2018-10-18T15:20:21.969Z,70.44
2018-10-18T15:25:40.624Z,71.30
2018-10-18T15:30:59.787Z,73.02
2018-10-18T15:36:18.334Z,75.46
2018-10-18T15:41:37.739Z,77.30
2018-10-18T15:46:56.384Z,78.85
2018-10-18T15:52:15.098Z,78.86
2018-10-18T15:57:34.551Z,79.30
2018-10-18T16:02:53.323Z,80.05
2018-10-18T16:08:11.983Z,81.22
2018-10-18T16:13:30.548Z,81.83
2018-10-18T16:18:49.390Z,82.09
2018-10-18T16:24:08.809Z,82.05
2018-10-18T16:29:27.629Z,82.35
2018-10-18T16:34:46.261Z,81.67
2018-10-18T16:40:05.284Z,81.85
2018-10-18T16:45:23.915Z,81.87
2018-10-18T16:50:42.525Z,82.74
2018-10-18T16:56:01.921Z,83.09
2018-10-18T17:01:21.233Z,83.34
2018-10-18T17:06:39.849Z,82.94
2018-10-18T17:11:58.476Z,82.73
2018-10-18T17:17:17.009Z,82.70
2018-10-18T17:22:35.838Z,83.46
2018-10-18T17:27:54.539Z,83.14
2018-10-18T17:33:13.151Z,82.74
2018-10-18T17:38:31.747Z,83.49
2018-10-18T17:43:50.484Z,83.30
2018-10-18T17:49:09.106Z,83.40
2018-10-18T17:54:27.717Z,84.04
2018-10-18T17:59:52.542Z,84.67
2018-10-18T18:05:13.055Z,86.52
2018-10-18T18:10:33.690Z,87.01
2018-10-18T18:15:56.254Z,87.36
2018-10-18T18:21:15.431Z,85.47
2018-10-18T18:26:45.220Z,85.62
2018-10-18T18:31:57.637Z,84.44
2018-10-18T18:37:16.285Z,85.21
2018-10-18T18:42:35.488Z,84.78
2018-10-18T18:47:55.122Z,84.65
2018-10-18T18:53:13.892Z,85.26
2018-10-18T18:58:32.563Z,85.35
2018-10-18T19:03:53.053Z,85.48
2018-10-18T19:09:11.710Z,85.24
2018-10-18T19:14:30.416Z,85.37
2018-10-18T19:19:49.003Z,85.67
2018-10-18T19:25:08.163Z,85.65
2018-10-18T19:30:26.694Z,86.30
2018-10-18T19:35:45.633Z,86.04
2018-10-18T19:41:04.216Z,85.55
2018-10-18T19:46:22.882Z,85.88
2018-10-18T19:51:41.307Z,85.06
2018-10-18T19:56:59.793Z,85.48
2018-10-18T20:02:18.300Z,84.37
2018-10-18T20:07:36.878Z,84.61
2018-10-18T20:12:55.479Z,84.41
2018-10-18T20:18:14.241Z,84.27
2018-10-18T20:23:33.129Z,83.99
2018-10-18T20:28:51.868Z,84.34
2018-10-18T20:34:10.418Z,84.51
2018-10-18T20:39:29.001Z,84.51
2018-10-18T20:44:47.518Z,85.57
2018-10-18T20:50:06.277Z,85.63
2018-10-18T20:55:24.846Z,85.80
2018-10-18T21:00:44.221Z,85.95
2018-10-18T21:06:02.819Z,85.74
2018-10-18T21:11:21.440Z,85.54
2018-10-18T21:16:40.012Z,85.79
2018-10-18T21:21:58.590Z,86.24
2018-10-18T21:27:17.142Z,86.62
2018-10-18T21:32:35.664Z,86.62
2018-10-18T21:37:54.295Z,86.34
2018-10-18T21:43:12.819Z,86.31
2018-10-18T21:48:32.435Z,86.43
2018-10-18T21:53:50.976Z,86.64
2018-10-18T21:59:09.536Z,86.52
2018-10-18T22:04:28.090Z,86.30
2018-10-18T22:09:46.650Z,86.22
2018-10-18T22:15:07.336Z,86.04
2018-10-18T22:20:25.987Z,86.06
2018-10-18T22:25:44.527Z,85.57
2018-10-18T22:31:03.964Z,85.43
2018-10-18T22:36:22.995Z,84.76
2018-10-18T22:41:41.795Z,83.53
2018-10-18T22:47:00.387Z,83.49
2018-10-18T22:52:18.918Z,83.77
2018-10-18T22:57:37.445Z,83.52
2018-10-18T23:02:55.992Z,84.64
2018-10-18T23:08:14.919Z,84.49
2018-10-18T23:13:33.541Z,84.46
2018-10-18T23:18:52.212Z,84.02
2018-10-18T23:24:10.730Z,83.65
2018-10-18T23:29:29.347Z,83.84
2018-10-18T23:34:47.893Z,83.31
2018-10-18T23:40:06.578Z,83.33
2018-10-18T23:45:25.068Z,83.51
2018-10-18T23:50:43.647Z,83.49
2018-10-18T23:56:02.179Z,83.62
